Terminal Aerodrome Forecast
Issued by NWS

Home | Current Version | Previous Version | Text Only | Print | Product List | Glossary Off
Versions: 1 2 3 4 5 6 7 8 9 10 11 12 13 14 15 16 17 18 19 20 21

000
FTUS43 KBIS 232332
TAFMOT
TAF
KMOT 232332Z 2400/2424 08017G24KT P6SM OVC012
     FM240200 08015KT P6SM OVC008
     FM240800 06010KT 5SM -SN BR OVC008
     FM241200 03009KT 2SM -SN BR OVC008
     FM241600 01011KT P6SM -SN OVC008
     FM241800 01012KT P6SM OVC008=

USA.gov is the U.S. government's official web portal to all federal, state and local government web resources and services.